createdAt,value
2022-11-27T00:01:37.023Z,14.90
2022-11-27T00:04:05.947Z,10.23
2022-11-27T00:06:35.412Z,10.13
2022-11-27T00:09:07.474Z,12.53
2022-11-27T00:11:34.838Z,14.40
2022-11-27T00:14:01.739Z,10.43
2022-11-27T00:16:29.140Z,12.80
2022-11-27T00:18:56.548Z,12.70
2022-11-27T00:21:27.360Z,12.93
2022-11-27T00:23:56.853Z,10.53
2022-11-27T00:26:24.832Z,12.13
2022-11-27T00:28:51.777Z,13.10
2022-11-27T00:31:28.463Z,14.50
2022-11-27T00:33:58.189Z,13.83
2022-11-27T00:36:26.197Z,13.03
2022-11-27T00:38:53.392Z,9.37
2022-11-27T00:41:30.735Z,8.67
2022-11-27T00:43:58.418Z,12.83
2022-11-27T00:46:29.556Z,13.43
2022-11-27T00:49:03.157Z,8.63
2022-11-27T00:51:30.789Z,11.30
2022-11-27T00:53:58.327Z,9.27
2022-11-27T00:56:36.712Z,9.40
2022-11-27T00:59:05.936Z,10.30
2022-11-27T01:01:40.230Z,8.43
2022-11-27T01:04:11.031Z,9.17
2022-11-27T01:06:38.021Z,8.33
2022-11-27T01:09:05.964Z,13.13
2022-11-27T01:11:35.688Z,10.77
2022-11-27T01:14:07.537Z,8.47
2022-11-27T01:16:36.402Z,10.90
2022-11-27T01:19:05.300Z,13.13
2022-11-27T01:21:34.852Z,11.33
2022-11-27T01:24:05.475Z,10.77
2022-11-27T01:26:32.725Z,10.77
2022-11-27T01:28:59.905Z,9.40
2022-11-27T01:31:32.513Z,11.23
2022-11-27T01:34:04.481Z,7.90
2022-11-27T01:36:32.424Z,8.73
2022-11-27T01:39:00.140Z,9.00
2022-11-27T01:41:35.269Z,10.50
2022-11-27T01:44:23.231Z,8.80
2022-11-27T01:47:12.848Z,8.97
2022-11-27T01:49:53.436Z,9.50
2022-11-27T01:52:36.019Z,8.67
2022-11-27T01:55:32.521Z,9.77
2022-11-27T01:58:22.171Z,8.30
2022-11-27T02:00:48.934Z,7.67
2022-11-27T02:03:16.304Z,11.77
2022-11-27T02:05:43.173Z,11.43
2022-11-27T02:08:14.556Z,9.50
2022-11-27T02:11:14.794Z,9.30
2022-11-27T02:14:22.721Z,10.37
2022-11-27T02:17:13.273Z,10.03
2022-11-27T02:20:28.084Z,10.90
2022-11-27T02:23:20.148Z,11.80
2022-11-27T02:26:22.867Z,11.13
2022-11-27T02:28:52.519Z,10.57
2022-11-27T02:31:31.476Z,12.03
2022-11-27T02:34:17.952Z,13.83
2022-11-27T02:37:08.719Z,14.30
2022-11-27T02:39:59.781Z,9.80
2022-11-27T02:42:33.041Z,9.00
2022-11-27T02:45:11.999Z,13.83
2022-11-27T02:47:44.844Z,12.50
2022-11-27T02:50:20.097Z,9.67
2022-11-27T02:52:50.367Z,10.13
2022-11-27T02:55:24.292Z,10.30
2022-11-27T02:57:56.517Z,10.53
2022-11-27T03:00:23.754Z,11.67
2022-11-27T03:02:59.249Z,12.47
2022-11-27T03:05:34.927Z,10.40
2022-11-27T03:08:29.609Z,11.43
2022-11-27T03:11:15.137Z,10.27
2022-11-27T03:13:50.357Z,12.50
2022-11-27T03:16:39.306Z,14.37
2022-11-27T03:19:24.549Z,10.70
2022-11-27T03:21:59.864Z,8.90
2022-11-27T03:24:30.112Z,9.43
2022-11-27T03:27:00.588Z,10.70
2022-11-27T03:29:45.574Z,10.73
2022-11-27T03:32:12.758Z,9.17
2022-11-27T03:34:41.189Z,10.40
2022-11-27T03:37:08.511Z,9.60
2022-11-27T03:39:36.152Z,10.53
2022-11-27T03:42:02.952Z,9.20
2022-11-27T03:44:42.558Z,12.60
2022-11-27T03:48:01.181Z,10.57
2022-11-27T03:50:55.280Z,12.17
2022-11-27T03:53:47.188Z,12.60
2022-11-27T03:56:39.952Z,10.57
2022-11-27T03:59:41.803Z,12.80
2022-11-27T04:02:14.584Z,12.73
2022-11-27T04:04:41.782Z,10.10
2022-11-27T04:07:16.855Z,9.37
2022-11-27T04:09:43.655Z,10.77
2022-11-27T04:12:10.513Z,8.47
2022-11-27T04:14:37.554Z,9.50
2022-11-27T04:17:04.547Z,11.63
2022-11-27T04:19:31.359Z,10.30
2022-11-27T04:21:58.537Z,13.07
2022-11-27T04:24:26.215Z,9.23
2022-11-27T04:26:53.030Z,10.10
2022-11-27T04:29:19.857Z,8.97
2022-11-27T04:31:46.688Z,6.90
2022-11-27T04:34:13.530Z,8.27
2022-11-27T04:36:40.250Z,9.27
2022-11-27T04:39:07.041Z,8.00
2022-11-27T04:41:33.980Z,10.37
2022-11-27T04:44:00.742Z,8.63
2022-11-27T04:46:27.792Z,9.70
2022-11-27T04:48:54.653Z,8.57
2022-11-27T04:51:21.529Z,12.13
2022-11-27T04:53:48.303Z,7.83
2022-11-27T04:56:15.230Z,8.30
2022-11-27T04:58:42.024Z,12.43
2022-11-27T05:01:09.737Z,12.10
2022-11-27T05:03:37.241Z,9.67
2022-11-27T05:06:04.165Z,8.67
2022-11-27T05:08:33.005Z,10.03
2022-11-27T05:11:07.106Z,7.60
2022-11-27T05:13:34.739Z,12.03
2022-11-27T05:16:01.968Z,13.13
2022-11-27T05:18:29.301Z,11.97
2022-11-27T05:21:03.451Z,9.80
2022-11-27T05:23:31.001Z,11.03
2022-11-27T05:25:58.101Z,13.43
2022-11-27T05:28:27.036Z,8.77
2022-11-27T05:30:54.477Z,7.70
2022-11-27T05:33:21.420Z,8.67
2022-11-27T05:35:48.233Z,7.80
2022-11-27T05:38:15.082Z,9.77
2022-11-27T05:40:41.872Z,8.07
2022-11-27T05:43:08.630Z,6.70
2022-11-27T05:45:37.899Z,7.60
2022-11-27T05:48:04.876Z,10.07
2022-11-27T05:50:31.776Z,7.90
2022-11-27T05:52:58.566Z,9.37
2022-11-27T05:55:25.371Z,7.40
2022-11-27T05:57:52.252Z,9.00
2022-11-27T06:00:19.259Z,9.50
2022-11-27T06:02:46.304Z,8.60
2022-11-27T06:05:13.085Z,7.83
2022-11-27T06:07:39.912Z,10.03
2022-11-27T06:10:07.397Z,6.97
2022-11-27T06:12:34.147Z,8.70
2022-11-27T06:15:00.943Z,9.23
2022-11-27T06:17:28.198Z,7.80
2022-11-27T06:19:54.944Z,8.93
2022-11-27T06:22:22.009Z,9.73
2022-11-27T06:24:48.798Z,10.40
2022-11-27T06:27:15.564Z,8.60
2022-11-27T06:29:42.307Z,9.50
2022-11-27T06:32:09.120Z,10.40
2022-11-27T06:34:35.916Z,13.97
2022-11-27T06:37:02.661Z,16.83
2022-11-27T06:39:29.390Z,15.80
2022-11-27T06:41:56.131Z,15.27
2022-11-27T06:44:22.946Z,10.43
2022-11-27T06:46:49.649Z,9.00
2022-11-27T06:49:16.410Z,10.80
2022-11-27T06:51:43.185Z,10.97
2022-11-27T06:54:09.932Z,9.13
2022-11-27T06:56:36.787Z,13.50
2022-11-27T06:59:03.770Z,16.73
2022-11-27T07:01:31.897Z,12.53
2022-11-27T07:03:59.096Z,14.23
2022-11-27T07:06:27.086Z,11.90
2022-11-27T07:08:55.939Z,12.03
2022-11-27T07:11:26.887Z,11.17
2022-11-27T07:13:57.409Z,10.60
2022-11-27T07:16:25.844Z,10.60
2022-11-27T07:18:57.327Z,10.63
2022-11-27T07:21:24.759Z,12.03
2022-11-27T07:23:52.123Z,11.43
2022-11-27T07:26:25.735Z,16.67
2022-11-27T07:28:53.017Z,14.57
2022-11-27T07:31:23.769Z,18.43
2022-11-27T07:33:52.464Z,14.43
2022-11-27T07:36:29.304Z,10.33
2022-11-27T07:38:57.924Z,13.27
2022-11-27T07:41:29.171Z,12.93
2022-11-27T07:43:59.169Z,14.80
2022-11-27T07:46:25.965Z,12.47
2022-11-27T07:48:53.056Z,10.83
2022-11-27T07:51:22.306Z,17.13
2022-11-27T07:53:51.833Z,15.67
2022-11-27T07:56:19.200Z,12.77
2022-11-27T07:58:46.509Z,11.80
2022-11-27T08:01:17.823Z,10.90
2022-11-27T08:03:44.916Z,12.87
2022-11-27T08:06:21.143Z,18.73
2022-11-27T08:08:49.039Z,15.63
2022-11-27T08:11:30.048Z,13.40
2022-11-27T08:14:06.843Z,17.43
2022-11-27T08:16:36.184Z,11.93
2022-11-27T08:19:03.740Z,15.07
2022-11-27T08:21:32.378Z,15.87
2022-11-27T08:23:59.210Z,13.13
2022-11-27T08:26:29.406Z,12.80
2022-11-27T08:28:57.528Z,12.10
2022-11-27T08:31:24.958Z,10.93
2022-11-27T08:33:52.046Z,12.27
2022-11-27T08:36:18.899Z,13.63
2022-11-27T08:38:47.099Z,13.50
2022-11-27T08:41:14.416Z,14.67
2022-11-27T08:43:41.282Z,13.13
2022-11-27T08:46:08.608Z,11.17
2022-11-27T08:48:37.861Z,11.73
2022-11-27T08:51:11.444Z,9.60
2022-11-27T08:53:38.901Z,14.23
2022-11-27T08:56:22.208Z,14.77
2022-11-27T08:58:49.822Z,12.17
2022-11-27T09:01:27.402Z,11.90
2022-11-27T09:03:54.726Z,13.20
2022-11-27T09:06:28.117Z,15.50
2022-11-27T09:09:01.187Z,15.27
2022-11-27T09:11:29.728Z,14.90
2022-11-27T09:13:56.536Z,13.57
2022-11-27T09:16:23.493Z,13.23
2022-11-27T09:18:52.873Z,12.43
2022-11-27T09:21:22.513Z,12.67
2022-11-27T09:23:59.675Z,16.13
2022-11-27T09:26:28.432Z,15.57
2022-11-27T09:28:58.259Z,13.87
2022-11-27T09:31:25.919Z,14.07
2022-11-27T09:33:53.673Z,12.03
2022-11-27T09:36:24.192Z,16.80
2022-11-27T09:38:51.994Z,10.97
2022-11-27T09:41:45.127Z,11.27
2022-11-27T09:44:48.159Z,8.40
2022-11-27T09:47:21.220Z,11.17
2022-11-27T09:50:01.415Z,13.50
2022-11-27T09:52:43.026Z,12.57
2022-11-27T09:55:33.285Z,12.00
2022-11-27T09:58:14.529Z,11.73
2022-11-27T10:00:43.762Z,9.83
2022-11-27T10:03:21.390Z,9.70
2022-11-27T10:05:57.958Z,9.00
2022-11-27T10:09:20.725Z,10.73
2022-11-27T10:12:26.963Z,8.97
2022-11-27T10:15:19.492Z,8.87
2022-11-27T10:18:03.403Z,8.17
2022-11-27T10:20:53.455Z,10.43
2022-11-27T10:23:59.741Z,9.30
2022-11-27T10:26:44.261Z,8.33
2022-11-27T10:29:34.866Z,8.30
2022-11-27T10:32:32.984Z,8.80
2022-11-27T10:35:16.114Z,8.10
2022-11-27T10:37:54.297Z,15.60
2022-11-27T10:40:31.626Z,9.90
2022-11-27T10:43:15.831Z,7.63
2022-11-27T10:46:03.993Z,8.70
2022-11-27T10:48:31.092Z,9.43
2022-11-27T10:50:57.917Z,10.13
2022-11-27T10:53:37.232Z,8.83
2022-11-27T10:56:16.082Z,8.37
2022-11-27T10:59:06.449Z,10.73
2022-11-27T11:01:52.826Z,7.70
2022-11-27T11:04:38.085Z,8.97
2022-11-27T11:07:27.235Z,7.17
2022-11-27T11:09:54.671Z,6.93
2022-11-27T11:12:23.965Z,11.10
2022-11-27T11:14:56.917Z,9.67
2022-11-27T11:17:34.598Z,9.13
2022-11-27T11:20:20.248Z,11.80
2022-11-27T11:22:48.429Z,13.20
2022-11-27T11:25:21.468Z,11.37
2022-11-27T11:27:51.250Z,9.97
2022-11-27T11:30:29.378Z,8.17
2022-11-27T11:33:02.780Z,7.43
2022-11-27T11:35:35.866Z,8.23
2022-11-27T11:38:16.920Z,8.00
2022-11-27T11:40:46.649Z,7.30
2022-11-27T11:43:34.194Z,8.90
2022-11-27T11:46:15.944Z,7.47
2022-11-27T11:48:58.242Z,7.57
2022-11-27T11:51:40.564Z,9.60
2022-11-27T11:54:29.489Z,7.73
2022-11-27T11:57:03.331Z,7.13
2022-11-27T12:00:10.750Z,8.30
2022-11-27T12:03:21.253Z,8.40
2022-11-27T12:06:54.821Z,6.53
2022-11-27T12:10:18.217Z,11.33
2022-11-27T12:13:32.957Z,7.50
2022-11-27T12:16:36.751Z,9.93
2022-11-27T12:19:53.705Z,8.60
2022-11-27T12:22:38.215Z,9.67
2022-11-27T12:25:41.843Z,7.33
2022-11-27T12:28:33.132Z,8.80
2022-11-27T12:31:09.594Z,7.07
2022-11-27T12:34:00.411Z,8.20
2022-11-27T12:36:48.869Z,6.83
2022-11-27T12:39:30.532Z,8.10
2022-11-27T12:42:08.745Z,8.20
2022-11-27T12:45:06.159Z,8.33
2022-11-27T12:47:42.260Z,9.70
2022-11-27T12:50:36.731Z,8.33
2022-11-27T12:53:24.569Z,9.97
2022-11-27T12:56:24.126Z,7.87
2022-11-27T12:59:06.908Z,7.10
2022-11-27T13:01:42.372Z,10.90
2022-11-27T13:04:48.254Z,7.23
2022-11-27T13:07:29.912Z,8.73
2022-11-27T13:10:43.072Z,7.80
2022-11-27T13:13:27.529Z,8.37
2022-11-27T13:16:07.844Z,9.57
2022-11-27T13:18:45.043Z,6.80
2022-11-27T13:21:34.669Z,9.10
2022-11-27T13:24:03.320Z,7.97
2022-11-27T13:26:39.563Z,7.43
2022-11-27T13:29:53.020Z,11.80
2022-11-27T13:32:25.610Z,12.67
2022-11-27T13:34:57.389Z,9.80
2022-11-27T13:37:40.773Z,10.57
2022-11-27T13:40:27.998Z,9.70
2022-11-27T13:43:03.554Z,11.30
2022-11-27T13:45:37.228Z,13.10
2022-11-27T13:48:33.354Z,8.40
2022-11-27T13:51:01.002Z,8.77
2022-11-27T13:53:42.598Z,8.60
2022-11-27T13:56:10.007Z,9.87
2022-11-27T13:58:43.154Z,9.73
2022-11-27T14:01:20.624Z,9.57
2022-11-27T14:03:48.834Z,9.50
2022-11-27T14:06:32.187Z,8.60
2022-11-27T14:09:07.296Z,9.20
2022-11-27T14:11:47.035Z,8.63
2022-11-27T14:14:24.943Z,9.30
2022-11-27T14:17:04.728Z,8.63
2022-11-27T14:19:43.173Z,10.77
2022-11-27T14:23:07.259Z,9.83
2022-11-27T14:25:37.370Z,8.73
2022-11-27T14:28:26.160Z,7.37
2022-11-27T14:31:02.363Z,7.67
2022-11-27T14:33:47.457Z,8.07
2022-11-27T14:36:34.745Z,8.50
2022-11-27T14:39:03.252Z,5.87
2022-11-27T14:41:31.616Z,8.47
2022-11-27T14:44:06.258Z,8.00
2022-11-27T14:46:36.833Z,8.60
2022-11-27T14:49:04.100Z,7.37
2022-11-27T14:51:37.274Z,10.40
2022-11-27T14:54:12.465Z,8.43
2022-11-27T14:56:44.103Z,8.33
2022-11-27T14:59:17.929Z,10.37
2022-11-27T15:01:46.636Z,8.27
2022-11-27T15:04:36.643Z,10.70
2022-11-27T15:07:17.149Z,7.87
2022-11-27T15:09:51.560Z,7.27
2022-11-27T15:12:29.524Z,8.57
2022-11-27T15:15:09.814Z,7.50
2022-11-27T15:17:39.839Z,8.07
2022-11-27T15:20:24.449Z,8.00
2022-11-27T15:22:58.747Z,12.47
2022-11-27T15:25:43.331Z,7.53
2022-11-27T15:28:29.460Z,9.40
2022-11-27T15:30:57.637Z,8.03
2022-11-27T15:33:33.724Z,10.30
2022-11-27T15:36:21.575Z,7.93
2022-11-27T15:38:51.083Z,8.53
2022-11-27T15:41:23.653Z,9.75
2022-11-27T15:43:50.557Z,7.87
2022-11-27T15:46:30.293Z,9.87
2022-11-27T15:48:58.332Z,10.63
2022-11-27T15:51:25.286Z,10.53
2022-11-27T15:53:52.134Z,9.63
2022-11-27T15:56:19.359Z,7.87
2022-11-27T15:58:46.383Z,8.80
2022-11-27T16:01:13.270Z,8.83
2022-11-27T16:03:40.484Z,7.33
2022-11-27T16:06:09.220Z,8.47
2022-11-27T16:08:36.433Z,11.30
2022-11-27T16:11:17.892Z,10.13
2022-11-27T16:13:52.400Z,10.13
2022-11-27T16:16:27.934Z,7.87
2022-11-27T16:19:00.450Z,11.97
2022-11-27T16:21:30.868Z,8.50
2022-11-27T16:24:05.091Z,10.33
2022-11-27T16:26:32.668Z,8.90
2022-11-27T16:28:59.678Z,8.87
2022-11-27T16:31:27.104Z,7.97
2022-11-27T16:33:54.290Z,8.77
2022-11-27T16:36:22.342Z,8.47
2022-11-27T16:38:52.075Z,10.63
2022-11-27T16:41:20.487Z,9.67
2022-11-27T16:43:51.901Z,14.27
2022-11-27T16:46:26.343Z,13.00
2022-11-27T16:48:54.475Z,12.47
2022-11-27T16:51:25.598Z,12.13
2022-11-27T16:53:55.392Z,10.37
2022-11-27T16:56:26.643Z,13.13
2022-11-27T16:58:59.365Z,11.83
2022-11-27T17:01:34.389Z,9.93
2022-11-27T17:04:04.635Z,14.17
2022-11-27T17:06:33.605Z,14.00
2022-11-27T17:09:03.604Z,12.10
2022-11-27T17:11:34.497Z,12.77
2022-11-27T17:14:06.183Z,15.83
2022-11-27T17:16:34.819Z,13.17
2022-11-27T17:19:02.249Z,14.93
2022-11-27T17:21:32.277Z,15.20
2022-11-27T17:24:14.673Z,13.83
2022-11-27T17:26:43.758Z,15.83
2022-11-27T17:29:16.433Z,13.93
2022-11-27T17:31:43.612Z,15.90
2022-11-27T17:34:14.150Z,13.77
2022-11-27T17:36:42.913Z,14.80
2022-11-27T17:39:13.163Z,13.93
2022-11-27T17:41:41.457Z,13.97
2022-11-27T17:44:08.618Z,16.73
2022-11-27T17:46:36.873Z,15.70
2022-11-27T17:49:06.638Z,14.40
2022-11-27T17:51:35.451Z,14.37
2022-11-27T17:54:03.392Z,12.93
2022-11-27T17:56:30.247Z,16.10
2022-11-27T17:58:57.021Z,15.83
2022-11-27T18:01:29.217Z,13.63
2022-11-27T18:04:00.302Z,16.70
2022-11-27T18:06:27.555Z,17.70
2022-11-27T18:08:56.437Z,23.70
2022-11-27T18:11:28.374Z,13.27
2022-11-27T18:13:55.388Z,15.70
2022-11-27T18:16:31.441Z,17.83
2022-11-27T18:19:01.868Z,16.03
2022-11-27T18:21:28.717Z,15.30
2022-11-27T18:27:07.128Z,18.10
2022-11-27T18:29:30.110Z,16.90
2022-11-27T18:31:57.086Z,20.93
2022-11-27T18:34:24.335Z,18.50
2022-11-27T18:36:51.271Z,20.00
2022-11-27T18:39:18.152Z,17.10
2022-11-27T18:41:44.875Z,22.93
2022-11-27T18:44:11.594Z,21.07
2022-11-27T18:46:38.535Z,19.13
2022-11-27T18:49:05.952Z,19.50
2022-11-27T18:51:32.809Z,18.03
2022-11-27T18:53:59.568Z,16.33
2022-11-27T18:56:30.533Z,13.77
2022-11-27T18:59:03.070Z,16.77
2022-11-27T19:01:39.573Z,15.33
2022-11-27T19:04:08.584Z,18.27
2022-11-27T19:06:37.494Z,20.87
2022-11-27T19:09:05.439Z,19.47
2022-11-27T19:11:33.846Z,18.10
2022-11-27T19:14:01.468Z,17.50
2022-11-27T19:16:41.899Z,18.77
2022-11-27T19:19:16.786Z,20.00
2022-11-27T19:21:55.824Z,18.53
2022-11-27T19:24:22.641Z,17.20
2022-11-27T19:26:49.366Z,21.03
2022-11-27T19:29:16.215Z,17.47
2022-11-27T19:31:43.060Z,19.00
2022-11-27T19:34:13.408Z,16.57
2022-11-27T19:36:40.305Z,16.30
2022-11-27T19:39:14.015Z,19.33
2022-11-27T19:41:43.264Z,17.87
2022-11-27T19:44:13.112Z,21.47
2022-11-27T19:46:41.050Z,19.20
2022-11-27T19:49:13.858Z,16.87
2022-11-27T19:51:41.682Z,17.87
2022-11-27T19:54:10.940Z,19.87
2022-11-27T19:56:39.779Z,19.20
2022-11-27T19:59:07.628Z,19.33
2022-11-27T20:01:35.578Z,16.17
2022-11-27T20:04:03.882Z,17.13
2022-11-27T20:06:31.269Z,17.33
2022-11-27T20:11:47.019Z,16.87
2022-11-27T20:14:14.073Z,18.30
2022-11-27T20:16:41.084Z,18.13
2022-11-27T20:19:08.086Z,16.73
2022-11-27T20:21:36.843Z,16.40
2022-11-27T20:24:04.768Z,15.20
2022-11-27T20:26:31.546Z,15.60
2022-11-27T20:28:59.074Z,16.53
2022-11-27T20:31:36.291Z,19.00
2022-11-27T20:34:06.793Z,16.13
2022-11-27T20:36:39.775Z,17.07
2022-11-27T20:39:07.337Z,18.93
2022-11-27T20:41:34.459Z,19.57
2022-11-27T20:44:02.667Z,19.87
2022-11-27T20:46:29.726Z,22.67
2022-11-27T20:48:57.154Z,19.40
2022-11-27T20:51:30.047Z,21.47
2022-11-27T20:54:00.476Z,21.87
2022-11-27T20:56:29.089Z,21.70
2022-11-27T20:58:57.290Z,19.47
2022-11-27T21:01:31.191Z,18.13
2022-11-27T21:04:00.505Z,18.37
2022-11-27T21:06:31.720Z,19.57
2022-11-27T21:09:04.761Z,22.70
2022-11-27T21:11:32.517Z,20.23
2022-11-27T21:14:04.732Z,23.93
2022-11-27T21:16:35.281Z,19.63
2022-11-27T21:19:11.958Z,22.73
2022-11-27T21:21:39.198Z,25.17
2022-11-27T21:24:06.653Z,22.47
2022-11-27T21:26:33.611Z,20.43
2022-11-27T21:29:00.374Z,25.10
2022-11-27T21:31:35.930Z,20.47
2022-11-27T21:34:07.415Z,17.00
2022-11-27T21:36:38.115Z,20.23
2022-11-27T21:39:08.595Z,19.13
2022-11-27T21:41:35.655Z,17.77
2022-11-27T21:44:03.541Z,21.40
2022-11-27T21:46:31.004Z,23.43
2022-11-27T21:49:01.105Z,21.27
2022-11-27T21:51:30.061Z,18.93
2022-11-27T21:53:59.577Z,20.10
2022-11-27T21:56:29.357Z,22.73
2022-11-27T21:58:56.292Z,19.67
2022-11-27T22:01:25.405Z,23.23
2022-11-27T22:03:57.297Z,25.53
2022-11-27T22:06:28.355Z,27.17
2022-11-27T22:08:58.796Z,20.53
2022-11-27T22:11:32.258Z,19.87
2022-11-27T22:14:04.608Z,19.43
2022-11-27T22:16:38.718Z,28.10
2022-11-27T22:19:11.162Z,21.43
2022-11-27T22:21:37.930Z,22.40
2022-11-27T22:24:04.951Z,20.20
2022-11-27T22:26:31.988Z,20.63
2022-11-27T22:28:58.961Z,22.67
2022-11-27T22:31:32.886Z,19.47
2022-11-27T22:34:00.359Z,22.47
2022-11-27T22:36:34.934Z,21.40
2022-11-27T22:39:08.151Z,19.00
2022-11-27T22:41:37.286Z,18.43
2022-11-27T22:44:14.068Z,27.77
2022-11-27T22:46:42.452Z,22.40
2022-11-27T22:49:14.025Z,18.07
2022-11-27T22:51:41.456Z,20.07
2022-11-27T22:54:11.859Z,20.30
2022-11-27T22:56:39.313Z,21.83
2022-11-27T22:59:31.005Z,18.83
2022-11-27T23:01:54.300Z,25.90
2022-11-27T23:04:21.230Z,24.67
2022-11-27T23:06:48.548Z,20.23
2022-11-27T23:09:17.947Z,20.67
2022-11-27T23:11:45.211Z,19.80
2022-11-27T23:14:12.158Z,20.00
2022-11-27T23:16:39.106Z,19.77
2022-11-27T23:19:06.056Z,23.03
2022-11-27T23:21:37.158Z,20.47
2022-11-27T23:24:06.916Z,24.40
2022-11-27T23:26:34.149Z,21.80
2022-11-27T23:29:01.198Z,20.30
2022-11-27T23:31:35.481Z,18.70
2022-11-27T23:34:07.353Z,19.00
2022-11-27T23:36:35.271Z,17.80
2022-11-27T23:39:07.929Z,19.57
2022-11-27T23:41:35.366Z,20.37
2022-11-27T23:44:02.261Z,23.60
2022-11-27T23:46:30.934Z,21.37
2022-11-27T23:48:59.934Z,22.00
2022-11-27T23:51:32.682Z,18.13
2022-11-27T23:54:01.134Z,18.37
2022-11-27T23:56:31.243Z,19.90
2022-11-27T23:58:59.372Z,18.33
